Time;durP1;ratioP1;P1;durP2;ratioP2;P2;SDS_P1;SDS_P2;PMS_P1;PMS_P2;Temp;Humidity;BMP_temperature;BMP_pressure;BME280_temperature;BME280_humidity;BME280_pressure;Samples;Min_cycle;Max_cycle;Signal;HPM_P1;HPM_P2
2023/05/07 00:01:49;;;;;;;9.25;7.80;;;;;;;13.22;98.88;101544.44;6072778;23;20010;-73
2023/05/07 00:04:14;;;;;;;9.77;7.72;;;;;;;13.25;98.45;101549.66;6073343;23;20010;-73
2023/05/07 00:06:40;;;;;;;11.18;8.88;;;;;;;13.24;98.71;101546.13;6072367;23;20014;-73
2023/05/07 00:09:06;;;;;;;12.18;8.85;;;;;;;13.24;98.91;101540.88;6074967;23;20021;-72
2023/05/07 00:11:33;;;;;;;10.57;8.48;;;;;;;13.28;98.92;101545.22;6096455;23;20508;-73
2023/05/07 00:13:58;;;;;;;9.43;7.93;;;;;;;13.28;99.15;101545.22;6123136;23;20041;-72
2023/05/07 00:16:24;;;;;;;11.00;9.07;;;;;;;13.26;99.38;101544.38;6098827;23;20093;-73
2023/05/07 00:18:50;;;;;;;11.32;8.40;;;;;;;13.27;99.10;101550.50;6098232;23;20017;-73
2023/05/07 00:21:16;;;;;;;12.02;9.05;;;;;;;13.31;99.19;101546.94;6074122;23;20025;-73
2023/05/07 00:23:41;;;;;;;11.15;9.00;;;;;;;13.31;98.71;101542.53;6121224;23;20010;-74
2023/05/07 00:26:07;;;;;;;10.02;8.80;;;;;;;13.33;98.66;101542.53;6073804;23;20013;-73
2023/05/07 00:28:32;;;;;;;9.65;8.68;;;;;;;13.28;98.84;101528.56;6073463;23;20013;-73
2023/05/07 00:31:00;;;;;;;11.60;9.65;;;;;;;13.29;98.75;101530.31;6098921;23;20042;-74
2023/05/07 00:33:26;;;;;;;11.85;9.55;;;;;;;13.29;98.92;101532.94;6097934;23;20006;-74
2023/05/07 00:35:53;;;;;;;11.45;10.20;;;;;;;13.29;98.92;101531.19;6096866;23;20020;-74
2023/05/07 00:38:19;;;;;;;12.20;10.00;;;;;;;13.28;99.21;101533.81;6072903;23;20069;-74
2023/05/07 00:40:45;;;;;;;12.10;10.18;;;;;;;13.28;99.14;101523.31;6098256;23;20014;-74
2023/05/07 00:43:10;;;;;;;14.70;10.23;;;;;;;13.30;98.82;101513.59;6098363;23;20006;-73
2023/05/07 00:45:36;;;;;;;14.85;10.85;;;;;;;13.32;98.42;101525.88;6098342;23;20032;-74
2023/05/07 00:48:02;;;;;;;13.43;9.90;;;;;;;13.30;98.79;101517.13;6074206;23;20009;-74
2023/05/07 00:50:29;;;;;;;13.15;10.38;;;;;;;13.29;99.20;101517.16;6095583;23;20022;-74
2023/05/07 00:52:55;;;;;;;11.82;10.52;;;;;;;13.29;99.00;101520.66;6072730;23;20009;-74
2023/05/07 00:55:22;;;;;;;13.23;10.93;;;;;;;13.24;99.64;101517.19;6098930;23;20013;-74
2023/05/07 00:57:49;;;;;;;14.00;10.57;;;;;;;13.22;99.84;101508.44;6096949;23;20091;-73
2023/05/07 01:00:16;;;;;;;13.25;10.93;;;;;;;13.20;99.53;101504.09;6097791;23;20044;-74
2023/05/07 01:02:42;;;;;;;13.10;10.45;;;;;;;13.22;99.74;101513.72;6097485;23;20013;-73
2023/05/07 01:05:14;;;;;;;11.15;10.05;;;;;;;13.17;99.90;101516.41;6122501;23;20341;-74
2023/05/07 01:07:40;;;;;;;11.93;9.82;;;;;;;13.17;99.70;101524.31;6096616;23;20012;-74
2023/05/07 01:10:07;;;;;;;11.25;10.15;;;;;;;13.17;99.49;101518.16;6101441;23;20144;-74
2023/05/07 01:12:34;;;;;;;12.98;10.48;;;;;;;13.15;99.77;101518.16;6077021;23;20010;-74
2023/05/07 01:15:00;;;;;;;15.68;10.40;;;;;;;13.16;99.62;101514.66;6101435;23;20080;-74
2023/05/07 01:17:26;;;;;;;12.40;10.40;;;;;;;13.15;99.70;101505.00;6101985;23;20088;-73
2023/05/07 01:19:52;;;;;;;15.43;11.65;;;;;;;13.15;99.91;101506.78;6100873;23;20428;-74
2023/05/07 01:22:31;;;;;;;13.07;11.68;;;;;;;13.16;99.97;101512.03;6076393;23;20402;-73
2023/05/07 01:24:59;;;;;;;12.65;11.35;;;;;;;13.13;100.00;101512.06;6100678;23;20005;-73
2023/05/07 01:27:25;;;;;;;14.48;12.02;;;;;;;13.12;99.69;101506.81;6077087;23;20052;-74
2023/05/07 01:29:53;;;;;;;12.82;11.52;;;;;;;13.10;100.00;101514.75;6101011;23;20309;-73
2023/05/07 01:32:27;;;;;;;14.55;12.20;;;;;;;13.09;100.00;101518.25;6101015;23;20002;-74
2023/05/07 01:34:53;;;;;;;13.55;11.75;;;;;;;13.07;100.00;101498.97;6101117;23;20455;-73
2023/05/07 01:37:20;;;;;;;12.43;11.13;;;;;;;13.08;99.94;101503.34;6100640;23;20389;-74
2023/05/07 01:39:47;;;;;;;13.10;11.18;;;;;;;13.07;100.00;101501.59;6101702;23;20034;-73
2023/05/07 01:42:15;;;;;;;16.17;12.40;;;;;;;13.07;100.00;101498.09;6077635;23;20010;-73
2023/05/07 01:44:40;;;;;;;13.93;12.18;;;;;;;13.10;100.00;101492.78;6077833;23;20045;-73
2023/05/07 01:47:06;;;;;;;14.05;12.55;;;;;;;13.04;100.00;101488.47;6076351;23;20344;-73
2023/05/07 01:49:32;;;;;;;15.98;14.35;;;;;;;13.07;100.00;101482.31;6100919;23;20084;-73
2023/05/07 01:51:59;;;;;;;19.52;14.52;;;;;;;13.08;100.00;101481.44;6100538;23;20089;-73
2023/05/07 01:54:28;;;;;;;16.88;15.07;;;;;;;13.08;100.00;101490.19;6125666;23;20010;-80
2023/05/07 01:56:55;;;;;;;17.90;15.43;;;;;;;13.05;100.00;101490.22;6099844;23;20105;-80
2023/05/07 01:59:23;;;;;;;17.42;14.73;;;;;;;13.06;100.00;101491.09;6101499;23;20100;-80
2023/05/07 02:01:49;;;;;;;19.17;16.00;;;;;;;13.01;100.00;101485.88;6098888;23;20013;-79
2023/05/07 02:04:14;;;;;;;17.50;15.68;;;;;;;12.99;100.00;101480.66;6077268;23;20002;-79
2023/05/07 02:06:40;;;;;;;19.70;15.98;;;;;;;13.03;100.00;101483.22;6100290;23;20022;-80
2023/05/07 02:09:05;;;;;;;18.67;16.40;;;;;;;13.01;100.00;101491.16;6101775;23;20049;-80
2023/05/07 02:11:31;;;;;;;19.10;15.88;;;;;;;12.99;100.00;101479.78;6076087;23;20329;-80
2023/05/07 02:13:56;;;;;;;20.10;17.23;;;;;;;12.99;100.00;101482.41;6075830;23;20037;-79
2023/05/07 02:16:22;;;;;;;20.20;17.58;;;;;;;12.98;100.00;101480.66;6075853;23;20121;-79
2023/05/07 02:18:48;;;;;;;20.40;18.23;;;;;;;12.96;100.00;101479.81;6075862;23;20321;-79
2023/05/07 02:21:13;;;;;;;21.02;17.95;;;;;;;12.96;100.00;101485.09;6098341;23;20020;-80
2023/05/07 02:23:39;;;;;;;20.70;18.50;;;;;;;12.96;100.00;101478.06;6098854;23;20014;-81
2023/05/07 02:26:05;;;;;;;21.60;19.38;;;;;;;12.92;100.00;101472.84;6075772;23;20036;-81
2023/05/07 02:28:30;;;;;;;20.85;18.60;;;;;;;12.92;100.00;101468.44;6099672;23;20421;-81
2023/05/07 02:30:58;;;;;;;22.88;19.38;;;;;;;12.89;100.00;101479.00;6074562;23;20033;-81
2023/05/07 02:33:23;;;;;;;21.58;19.27;;;;;;;12.91;100.00;101484.25;6075956;23;20384;-80
2023/05/07 02:35:52;;;;;;;24.90;20.08;;;;;;;12.89;100.00;101478.16;6099285;23;20096;-81
2023/05/07 02:38:17;;;;;;;22.13;19.77;;;;;;;12.88;100.00;101481.66;6074648;23;20436;-81
2023/05/07 02:40:43;;;;;;;22.50;20.08;;;;;;;12.88;100.00;101485.16;6074522;23;20014;-80
2023/05/07 02:43:09;;;;;;;20.52;18.42;;;;;;;12.88;100.00;101486.91;6099386;23;20010;-80
2023/05/07 02:45:34;;;;;;;24.75;21.90;;;;;;;12.87;100.00;101488.66;6099496;23;20010;-80
2023/05/07 02:48:00;;;;;;;22.65;19.90;;;;;;;12.87;100.00;101482.53;6099553;23;20105;-80
2023/05/07 02:50:26;;;;;;;22.45;20.00;;;;;;;12.83;100.00;101482.56;6110569;23;20076;-80
2023/05/07 02:52:52;;;;;;;22.08;19.77;;;;;;;12.87;100.00;101479.91;6103740;23;20006;-80
2023/05/07 02:55:17;;;;;;;22.45;19.77;;;;;;;12.87;100.00;101480.78;6104184;23;20082;-80
2023/05/07 02:57:43;;;;;;;22.88;19.20;;;;;;;12.90;100.00;101479.88;6104286;23;20463;-80
2023/05/07 03:00:16;;;;;;;24.30;20.50;;;;;;;12.92;100.00;101486.00;6127857;23;20009;-79
2023/05/07 03:02:42;;;;;;;21.85;19.35;;;;;;;12.92;100.00;101486.00;6129166;23;20005;-80
2023/05/07 03:05:10;;;;;;;22.52;19.25;;;;;;;12.94;100.00;101486.84;6128257;23;20013;-80
2023/05/07 03:07:36;;;;;;;22.90;20.05;;;;;;;12.95;100.00;101486.81;6127576;23;20342;-80
2023/05/07 03:10:03;;;;;;;22.73;20.15;;;;;;;12.99;100.00;101491.16;6152851;23;20048;-80
2023/05/07 03:12:30;;;;;;;23.38;20.33;;;;;;;12.95;100.00;101488.59;6128400;23;19997;-79
2023/05/07 03:14:55;;;;;;;23.05;20.30;;;;;;;12.94;100.00;101489.47;6154324;23;20084;-80
2023/05/07 03:17:21;;;;;;;21.67;19.05;;;;;;;12.95;100.00;101480.69;6127283;23;20048;-80
2023/05/07 03:19:47;;;;;;;22.08;19.40;;;;;;;12.98;100.00;101484.16;6128471;23;20395;-80
2023/05/07 03:22:12;;;;;;;21.83;19.52;;;;;;;12.99;100.00;101490.31;6127033;23;20067;-80
2023/05/07 03:24:37;;;;;;;22.60;19.60;;;;;;;12.99;100.00;101485.91;6104545;23;20013;-80
2023/05/07 03:27:05;;;;;;;23.52;21.02;;;;;;;13.02;100.00;101486.78;6129170;23;20009;-80
2023/05/07 03:29:31;;;;;;;22.05;19.80;;;;;;;13.00;100.00;101484.13;6103351;23;20013;-80
2023/05/07 03:31:56;;;;;;;24.00;19.92;;;;;;;13.00;100.00;101473.59;6128468;23;20016;-81
2023/05/07 03:34:22;;;;;;;22.45;20.02;;;;;;;13.00;100.00;101471.88;6128565;23;20018;-81
2023/05/07 03:36:51;;;;;;;20.58;18.20;;;;;;;13.04;100.00;101480.59;6127998;23;20014;-80
2023/05/07 03:39:16;;;;;;;21.52;19.23;;;;;;;13.04;100.00;101477.94;6128543;23;20009;-79
2023/05/07 03:41:42;;;;;;;22.65;18.95;;;;;;;13.00;100.00;101469.25;6128756;23;20036;-80
2023/05/07 03:44:07;;;;;;;23.25;20.38;;;;;;;13.03;100.00;101483.22;6104545;23;20280;-80
2023/05/07 03:46:33;;;;;;;22.17;19.98;;;;;;;12.98;100.00;101478.03;6104402;23;20014;-80
2023/05/07 03:48:59;;;;;;;22.17;19.98;;;;;;;12.96;100.00;101464.91;6128397;23;20067;-80
2023/05/07 03:51:25;;;;;;;23.10;20.73;;;;;;;12.93;100.00;101464.03;6128256;23;20021;-80
2023/05/07 03:53:54;;;;;;;23.92;19.58;;;;;;;12.96;100.00;101472.78;6104011;23;20005;-80
2023/05/07 03:56:20;;;;;;;23.63;21.10;;;;;;;12.96;100.00;101479.81;6129312;23;20009;-80
2023/05/07 03:58:47;;;;;;;22.23;20.02;;;;;;;12.93;100.00;101469.31;6128272;23;20013;-80
2023/05/07 04:01:12;;;;;;;22.55;20.25;;;;;;;12.94;100.00;101479.84;6127575;23;20040;-80
2023/05/07 04:03:40;;;;;;;24.13;21.67;;;;;;;12.93;100.00;101479.81;6127812;23;20010;-79
2023/05/07 04:06:06;;;;;;;23.75;21.25;;;;;;;12.91;100.00;101489.50;6128029;23;20491;-79
2023/05/07 04:08:31;;;;;;;24.10;21.45;;;;;;;12.92;100.00;101489.50;6128157;23;20013;-79
2023/05/07 04:10:58;;;;;;;24.55;21.95;;;;;;;12.91;100.00;101498.25;6102970;23;20010;-78
2023/05/07 04:13:23;;;;;;;25.40;22.23;;;;;;;12.92;100.00;101493.91;6104291;23;20009;-79
2023/05/07 04:15:49;;;;;;;25.02;22.48;;;;;;;12.90;100.00;101493.03;6127585;23;20017;-79
2023/05/07 04:18:15;;;;;;;28.05;23.60;;;;;;;12.87;100.00;101498.31;6102923;23;20084;-79
2023/05/07 04:20:40;;;;;;;26.60;23.80;;;;;;;12.88;100.00;101495.66;6103412;23;20009;-79
2023/05/07 04:23:06;;;;;;;26.38;23.70;;;;;;;12.89;100.00;101504.44;6127896;23;20005;-79
2023/05/07 04:25:32;;;;;;;26.58;23.70;;;;;;;12.87;100.00;101495.69;6103665;23;20010;-81
2023/05/07 04:27:57;;;;;;;25.40;22.35;;;;;;;12.89;100.00;101505.31;6104061;23;20010;-79
2023/05/07 04:30:23;;;;;;;26.35;23.55;;;;;;;12.88;100.00;101506.19;6103555;23;20116;-80
2023/05/07 04:32:48;;;;;;;26.50;23.60;;;;;;;12.90;100.00;101506.19;6127473;23;20005;-80
2023/05/07 04:35:14;;;;;;;27.35;24.45;;;;;;;12.90;100.00;101507.06;6127485;23;20072;-80
2023/05/07 04:37:39;;;;;;;27.67;24.70;;;;;;;12.94;100.00;101502.63;6127398;23;20020;-79
2023/05/07 04:40:07;;;;;;;28.60;25.63;;;;;;;12.95;100.00;101499.13;6127977;23;20316;-80
2023/05/07 04:42:32;;;;;;;27.05;24.15;;;;;;;12.96;100.00;101504.34;6103826;23;20310;-79
2023/05/07 04:44:58;;;;;;;30.48;25.85;;;;;;;12.96;100.00;101506.13;6128264;23;20112;-79
2023/05/07 04:47:24;;;;;;;30.77;26.75;;;;;;;12.97;100.00;101494.69;6103800;23;20088;-79
2023/05/07 04:49:49;;;;;;;29.27;25.52;;;;;;;12.96;100.00;101503.50;6098398;23;20026;-79
2023/05/07 04:52:15;;;;;;;33.63;27.85;;;;;;;12.97;100.00;101507.84;6073215;23;20064;-79
2023/05/07 04:54:41;;;;;;;31.10;26.75;;;;;;;12.98;100.00;101504.34;6098954;23;20436;-80
2023/05/07 04:57:06;;;;;;;28.95;25.90;;;;;;;13.03;100.00;101507.81;6098956;23;20057;-80
2023/05/07 04:59:32;;;;;;;31.25;26.23;;;;;;;13.04;100.00;101508.66;6098430;23;20016;-80
2023/05/07 05:01:58;;;;;;;30.20;26.10;;;;;;;13.05;100.00;101505.16;6098824;23;20006;-80
2023/05/07 05:04:24;;;;;;;31.38;27.48;;;;;;;13.07;100.00;101509.47;6121218;23;20010;-80
2023/05/07 05:06:49;;;;;;;29.60;26.55;;;;;;;13.06;100.00;101512.13;6097494;23;20017;-81
2023/05/07 05:09:16;;;;;;;30.83;27.60;;;;;;;13.07;100.00;101519.16;6097890;23;20014;-80
2023/05/07 05:11:41;;;;;;;32.03;27.70;;;;;;;13.09;100.00;101522.66;6073579;23;20325;-78
2023/05/07 05:14:07;;;;;;;31.70;28.30;;;;;;;13.10;100.00;101525.25;6073570;23;20017;-78
2023/05/07 05:16:32;;;;;;;33.95;28.20;;;;;;;13.13;100.00;101519.06;6072426;23;20006;-78
2023/05/07 05:18:59;;;;;;;32.40;28.90;;;;;;;13.15;100.00;101518.16;6096494;23;20372;-78
2023/05/07 05:21:24;;;;;;;32.17;28.70;;;;;;;13.16;100.00;101526.97;6094774;23;20006;-78
2023/05/07 05:23:50;;;;;;;33.40;29.80;;;;;;;13.19;100.00;101532.19;6073859;23;20338;-78
2023/05/07 05:26:15;;;;;;;37.83;30.95;;;;;;;13.24;100.00;101527.72;6096736;23;20021;-79
2023/05/07 05:28:41;;;;;;;35.92;31.33;;;;;;;13.26;100.00;101535.59;6098159;23;20085;-72
2023/05/07 05:31:06;;;;;;;34.47;30.77;;;;;;;13.30;100.00;101535.56;6073597;23;20014;-72
2023/05/07 05:33:32;;;;;;;35.58;30.35;;;;;;;13.35;100.00;101540.78;6097664;23;20065;-72
2023/05/07 05:35:59;;;;;;;36.42;32.53;;;;;;;13.38;100.00;101546.00;6073915;23;20440;-73
2023/05/07 05:38:25;;;;;;;35.38;31.52;;;;;;;13.42;100.00;101537.19;6097110;23;20014;-72
2023/05/07 05:40:51;;;;;;;36.47;31.63;;;;;;;13.44;100.00;101545.94;6097567;23;20029;-73
2023/05/07 05:43:16;;;;;;;37.65;32.20;;;;;;;13.47;100.00;101539.75;6096150;23;20014;-73
2023/05/07 05:45:42;;;;;;;37.20;33.13;;;;;;;13.52;100.00;101538.81;6121457;23;20081;-73
2023/05/07 05:48:08;;;;;;;37.45;33.05;;;;;;;13.55;100.00;101552.81;6073321;23;20041;-73
2023/05/07 05:50:35;;;;;;;37.42;33.40;;;;;;;13.61;100.00;101552.75;6134665;23;20507;-73
2023/05/07 05:53:04;;;;;;;35.90;32.15;;;;;;;13.64;100.00;101552.72;6127216;23;20384;-73
2023/05/07 05:55:32;;;;;;;40.45;36.13;;;;;;;13.71;100.00;101545.63;6128760;23;20013;-73
2023/05/07 05:57:57;;;;;;;40.13;34.80;;;;;;;13.74;100.00;101545.56;6129493;23;20032;-73
2023/05/07 06:00:23;;;;;;;40.75;34.92;;;;;;;13.75;100.00;101549.91;6128713;23;20436;-73
2023/05/07 06:02:48;;;;;;;39.90;35.40;;;;;;;13.79;100.00;101541.97;6103577;23;20017;-73
2023/05/07 06:05:17;;;;;;;36.03;32.22;;;;;;;13.79;100.00;101547.25;6103397;23;20400;-74
2023/05/07 06:07:43;;;;;;;37.60;31.90;;;;;;;13.80;100.00;101546.34;6127203;23;20014;-74
2023/05/07 06:10:08;;;;;;;35.13;31.38;;;;;;;13.88;100.00;101550.63;6126369;23;20098;-72
2023/05/07 06:12:33;;;;;;;35.95;30.20;;;;;;;13.94;100.00;101546.16;6098448;23;20009;-72
2023/05/07 06:14:59;;;;;;;36.22;32.53;;;;;;;14.02;100.00;101553.94;6124921;23;20156;-72
2023/05/07 06:17:24;;;;;;;35.65;31.13;;;;;;;14.08;100.00;101553.88;6102699;23;20025;-72
2023/05/07 06:19:50;;;;;;;33.13;29.63;;;;;;;14.12;100.00;101545.03;6103764;23;20093;-72
2023/05/07 06:22:16;;;;;;;34.30;30.60;;;;;;;14.18;100.00;101555.47;6127327;23;20096;-72
2023/05/07 06:24:41;;;;;;;32.08;28.80;;;;;;;14.25;100.00;101550.09;6103986;23;20384;-72
2023/05/07 06:27:07;;;;;;;34.00;30.38;;;;;;;14.30;100.00;101557.03;6128550;23;20088;-72
2023/05/07 06:29:33;;;;;;;30.65;27.60;;;;;;;14.28;100.00;101553.56;6127699;23;20498;-73
2023/05/07 06:32:11;;;;;;;32.95;29.42;;;;;;;14.38;100.00;101551.66;6104778;23;20108;-74
2023/05/07 06:34:38;;;;;;;32.42;29.13;;;;;;;14.48;99.99;101553.22;6103798;23;20013;-73
2023/05/07 06:37:03;;;;;;;31.33;28.15;;;;;;;14.50;99.67;101561.97;6127724;23;20022;-73
2023/05/07 06:39:32;;;;;;;31.75;28.42;;;;;;;14.49;98.85;101560.22;6128898;23;20023;-74
2023/05/07 06:42:00;;;;;;;30.77;27.53;;;;;;;14.51;98.55;101557.56;6128261;23;20014;-73
2023/05/07 06:44:25;;;;;;;31.50;28.23;;;;;;;14.50;98.23;101561.97;6128328;23;20013;-73
2023/05/07 06:46:51;;;;;;;31.38;28.08;;;;;;;14.57;98.88;101560.13;6127426;23;20119;-73
2023/05/07 06:49:16;;;;;;;31.40;28.25;;;;;;;14.61;99.53;101558.28;6102237;23;20336;-73
2023/05/07 06:51:44;;;;;;;30.42;27.42;;;;;;;14.66;99.38;101567.03;6075513;23;20025;-81
2023/05/07 06:54:09;;;;;;;33.17;29.88;;;;;;;14.68;99.92;101565.22;6098033;23;20377;-81
2023/05/07 06:56:35;;;;;;;30.27;27.27;;;;;;;14.66;98.23;101567.88;6098757;23;20014;-81
2023/05/07 06:59:04;;;;;;;28.92;26.08;;;;;;;14.70;97.89;101568.72;6074124;23;20029;-73
2023/05/07 07:01:29;;;;;;;32.03;28.77;;;;;;;14.73;99.12;101566.03;6124222;23;20014;-73
2023/05/07 07:03:55;;;;;;;31.23;28.02;;;;;;;14.75;98.55;101573.91;6097268;23;20384;-73
2023/05/07 07:06:20;;;;;;;30.67;27.58;;;;;;;14.76;99.32;101568.59;6096467;23;20013;-74
2023/05/07 07:08:46;;;;;;;30.63;27.45;;;;;;;14.78;99.08;101563.31;6098326;23;20013;-81
2023/05/07 07:11:11;;;;;;;31.55;28.27;;;;;;;14.79;98.51;101572.97;6097899;23;20010;-80
2023/05/07 07:13:37;;;;;;;30.35;27.17;;;;;;;14.79;97.81;101573.81;6098021;23;20096;-81
2023/05/07 07:16:03;;;;;;;31.13;27.08;;;;;;;14.78;97.56;101582.63;6073802;23;20009;-81
2023/05/07 07:18:30;;;;;;;28.83;25.90;;;;;;;14.76;96.72;101576.53;6098439;23;20009;-81
2023/05/07 07:20:56;;;;;;;28.05;25.15;;;;;;;14.77;96.36;101578.28;6073127;23;20018;-81
2023/05/07 07:23:21;;;;;;;28.17;25.27;;;;;;;14.77;96.92;101580.91;6073351;23;20010;-80
2023/05/07 07:25:47;;;;;;;27.55;24.75;;;;;;;14.74;96.96;101580.97;6074748;23;20278;-80
2023/05/07 07:28:12;;;;;;;27.80;24.90;;;;;;;14.77;96.53;101588.81;6098699;23;20101;-81
2023/05/07 07:30:38;;;;;;;28.10;25.05;;;;;;;14.78;97.18;101587.91;6099238;23;20588;-80
2023/05/07 07:33:04;;;;;;;28.02;25.25;;;;;;;14.76;97.15;101583.56;6098079;23;20009;-80
2023/05/07 07:35:33;;;;;;;27.95;25.05;;;;;;;14.80;96.95;101587.91;6098379;23;20010;-81
2023/05/07 07:37:58;;;;;;;27.88;25.02;;;;;;;14.79;96.46;101579.09;6098065;23;20040;-82
2023/05/07 07:40:26;;;;;;;27.73;24.88;;;;;;;14.80;97.30;101580.84;6098600;23;20041;-81
2023/05/07 07:42:53;;;;;;;27.73;24.80;;;;;;;14.82;97.68;101584.31;6099933;23;20076;-79
2023/05/07 07:45:18;;;;;;;27.85;25.15;;;;;;;14.85;96.60;101592.19;6099650;23;20068;-82
2023/05/07 07:47:43;;;;;;;26.85;24.00;;;;;;;14.87;96.51;101587.75;6099073;23;20010;-82
2023/05/07 07:50:10;;;;;;;26.17;23.58;;;;;;;14.95;96.21;101584.97;6097692;23;20013;-81
2023/05/07 07:52:35;;;;;;;28.40;25.50;;;;;;;15.02;96.92;101585.75;6073191;23;20005;-82
2023/05/07 07:55:01;;;;;;;26.35;23.83;;;;;;;15.02;95.93;101591.03;6097735;23;20401;-81
2023/05/07 07:57:26;;;;;;;27.30;24.45;;;;;;;15.07;95.36;101589.19;6098453;23;20045;-82
2023/05/07 08:00:03;;;;;;;25.98;23.42;;;;;;;15.17;95.71;101598.66;6074892;23;20061;-80
2023/05/07 08:02:34;;;;;;;27.75;24.85;;;;;;;15.33;97.49;101595.72;6098161;23;20014;-80
2023/05/07 08:04:59;;;;;;;26.67;23.80;;;;;;;15.50;97.39;101593.63;6097170;23;20014;-81
2023/05/07 08:07:24;;;;;;;25.63;22.88;;;;;;;15.65;95.46;101596.84;6073145;23;20020;-80
2023/05/07 08:09:51;;;;;;;25.30;22.70;;;;;;;15.83;93.64;101604.44;6096440;23;20382;-81
2023/05/07 08:12:16;;;;;;;25.63;22.92;;;;;;;15.92;92.44;101606.84;6097266;23;20012;-81
2023/05/07 08:14:42;;;;;;;27.35;24.45;;;;;;;16.10;94.30;101604.69;6096468;23;20018;-74
2023/05/07 08:17:09;;;;;;;24.80;22.38;;;;;;;16.31;94.50;101603.34;6072673;23;20014;-73
2023/05/07 08:19:35;;;;;;;22.88;20.17;;;;;;;16.42;93.01;101606.59;6074596;23;20010;-73
2023/05/07 08:22:00;;;;;;;21.27;19.08;;;;;;;16.50;90.25;101600.25;6072718;23;20013;-73
2023/05/07 08:24:25;;;;;;;23.13;20.80;;;;;;;16.59;90.35;101603.56;6074139;23;20065;-74
2023/05/07 08:26:51;;;;;;;22.10;19.90;;;;;;;16.60;87.98;101610.56;6073591;23;20014;-74
2023/05/07 08:29:16;;;;;;;21.40;19.25;;;;;;;16.66;88.48;101609.53;6097509;23;20061;-74
2023/05/07 08:31:42;;;;;;;21.27;19.00;;;;;;;16.73;87.61;101605.84;6098024;23;20273;-73
2023/05/07 08:34:07;;;;;;;20.67;18.70;;;;;;;16.84;88.48;101613.50;6073883;23;20429;-74
2023/05/07 08:36:33;;;;;;;21.70;19.45;;;;;;;16.89;86.96;101611.63;6096535;23;20009;-74
2023/05/07 08:38:59;;;;;;;22.15;19.90;;;;;;;16.97;87.63;101607.00;6097075;23;20013;-73
2023/05/07 08:41:25;;;;;;;22.40;20.10;;;;;;;17.18;87.56;101607.34;6097851;23;20044;-74
2023/05/07 08:43:51;;;;;;;23.02;20.73;;;;;;;17.31;90.84;101614.06;6097779;23;20010;-74
2023/05/07 08:46:21;;;;;;;21.65;19.42;;;;;;;17.27;85.75;101614.19;6098323;23;20077;-73
2023/05/07 08:48:51;;;;;;;19.75;17.63;;;;;;;17.38;84.85;101609.44;6097954;23;20009;-74
2023/05/07 08:51:19;;;;;;;20.83;18.83;;;;;;;17.46;84.48;101609.25;6112075;23;20044;-73
2023/05/07 08:53:45;;;;;;;20.45;18.23;;;;;;;17.47;84.25;101611.00;6102217;23;20141;-75
2023/05/07 08:56:11;;;;;;;19.55;17.52;;;;;;;17.44;82.85;101613.69;6126707;23;20368;-74
2023/05/07 08:58:37;;;;;;;18.83;16.88;;;;;;;17.51;82.44;101609.09;6127080;23;20060;-74
2023/05/07 09:01:09;;;;;;;19.98;18.08;;;;;;;17.66;82.68;101622.78;6127205;23;20060;-74
2023/05/07 09:03:36;;;;;;;20.20;18.10;;;;;;;17.70;83.43;101617.38;6125778;23;20168;-74
2023/05/07 09:06:01;;;;;;;19.75;17.70;;;;;;;17.73;82.38;101618.19;6101732;23;20010;-75
2023/05/07 09:08:27;;;;;;;19.30;17.30;;;;;;;17.80;82.24;101616.19;6099563;23;20437;-74
2023/05/07 09:10:53;;;;;;;19.90;17.80;;;;;;;17.90;82.42;101625.66;6127089;23;20001;-74
2023/05/07 09:13:19;;;;;;;19.30;16.98;;;;;;;17.93;82.71;101614.97;6127363;23;20001;-74
2023/05/07 09:15:45;;;;;;;20.65;18.55;;;;;;;18.11;83.22;101620.63;6127011;23;20017;-74
2023/05/07 09:18:10;;;;;;;20.45;18.27;;;;;;;18.07;81.24;101611.03;6124699;23;20009;-74
2023/05/07 09:20:40;;;;;;;19.75;17.60;;;;;;;18.18;82.23;101611.56;6101164;23;20415;-75
2023/05/07 09:23:07;;;;;;;;;;;;;;;18.30;82.58;101620.91;6101475;23;20443;-76
2023/05/07 09:25:35;;;;;;;19.45;17.38;;;;;;;18.20;81.33;101620.31;6102094;23;19970;-75
2023/05/07 09:28:06;;;;;;;21.40;19.17;;;;;;;18.31;85.11;101617.34;6126222;23;20320;-74
2023/05/07 09:30:32;;;;;;;19.02;17.02;;;;;;;18.42;83.53;101612.56;6128633;23;20088;-75
2023/05/07 09:33:00;;;;;;;20.27;18.38;;;;;;;18.56;80.73;101612.13;6104097;23;20009;-75
2023/05/07 09:35:29;;;;;;;19.77;17.77;;;;;;;18.52;80.89;101613.13;6128383;23;20014;-76
2023/05/07 09:38:00;;;;;;;18.45;16.63;;;;;;;18.58;79.71;101615.59;6128252;23;20055;-74
2023/05/07 09:40:29;;;;;;;19.73;17.73;;;;;;;18.52;80.02;101613.13;6126639;23;20017;-73
2023/05/07 09:45:28;;;;;;;17.40;15.70;;;;;;;18.48;78.47;101624.78;6161280;22;20076;-75
2023/05/07 09:47:58;;;;;;;18.40;16.60;;;;;;;18.58;79.72;101620.03;6079532;23;20045;-75
2023/05/07 09:50:28;;;;;;;18.90;16.85;;;;;;;18.50;79.49;101617.59;6079627;23;20013;-75
2023/05/07 09:52:55;;;;;;;19.75;17.85;;;;;;;18.68;81.65;101614.34;6129713;23;20048;-72
2023/05/07 09:55:21;;;;;;;18.83;16.92;;;;;;;18.67;79.48;101612.59;6106026;23;20063;-74
2023/05/07 09:57:50;;;;;;;18.52;16.63;;;;;;;18.71;78.73;101616.03;6105601;23;20467;-72
2023/05/07 10:00:21;;;;;;;17.98;16.17;;;;;;;18.70;78.62;101620.50;6157320;23;20016;-73
2023/05/07 10:02:49;;;;;;;18.40;16.60;;;;;;;18.81;77.94;101616.59;6106243;23;20017;-72
2023/05/07 10:05:15;;;;;;;18.30;16.50;;;;;;;18.84;78.39;101616.50;6105436;23;20013;-75
2023/05/07 10:07:41;;;;;;;17.95;15.18;;;;;;;18.81;75.85;101616.59;6127671;23;20350;-74
2023/05/07 10:10:07;;;;;;;16.20;14.57;;;;;;;18.93;76.86;101623.31;6081325;23;20014;-74
2023/05/07 10:12:38;;;;;;;16.52;14.80;;;;;;;19.00;78.26;101616.88;6130393;23;20002;-74
2023/05/07 10:15:07;;;;;;;16.05;14.38;;;;;;;18.96;75.93;101615.22;6106715;23;20009;-73
2023/05/07 10:17:35;;;;;;;16.25;14.43;;;;;;;18.97;76.77;101617.84;6128890;23;20012;-74
2023/05/07 10:20:01;;;;;;;18.38;16.40;;;;;;;19.03;77.38;101622.91;6129114;23;20006;-74
2023/05/07 10:22:28;;;;;;;16.48;14.93;;;;;;;19.09;76.43;101621.84;6128306;23;20589;-74
2023/05/07 10:24:59;;;;;;;16.23;14.63;;;;;;;19.26;77.29;101613.28;6130230;23;20001;-73
2023/05/07 10:27:25;;;;;;;16.42;14.82;;;;;;;19.21;76.22;101612.59;6129742;23;20414;-74
2023/05/07 10:30:09;;;;;;;16.13;14.52;;;;;;;19.31;76.44;101610.44;6080722;23;20033;-75
2023/05/07 10:32:53;;;;;;;14.65;13.15;;;;;;;19.31;75.96;101616.66;6129944;23;20006;-74
2023/05/07 10:35:25;;;;;;;15.77;13.45;;;;;;;19.44;74.44;101616.19;6129292;23;20040;-74
2023/05/07 10:37:51;;;;;;;14.82;13.43;;;;;;;19.54;71.89;101614.94;6129525;23;20319;-75
2023/05/07 10:40:19;;;;;;;15.02;12.32;;;;;;;19.59;71.44;101620.94;6080106;23;20013;-74
2023/05/07 10:43:00;;;;;;;13.10;11.70;;;;;;;19.70;72.24;101621.41;6105882;23;20395;-74
2023/05/07 10:45:26;;;;;;;14.98;12.32;;;;;;;19.72;71.78;101616.03;6126870;23;20021;-74
2023/05/07 10:48:12;;;;;;;14.88;13.25;;;;;;;19.80;73.24;101621.13;6132565;23;20017;-74
2023/05/07 10:50:39;;;;;;;15.45;13.85;;;;;;;19.79;72.37;101619.38;6157151;23;20001;-74
2023/05/07 10:53:16;;;;;;;15.50;13.90;;;;;;;19.96;72.80;101624.91;6133929;23;20001;-74
2023/05/07 10:55:43;;;;;;;14.50;12.98;;;;;;;20.08;71.48;101629.75;6185291;23;20004;-74
2023/05/07 10:58:21;;;;;;;15.40;14.00;;;;;;;20.23;71.84;101632.75;6158520;23;20008;-75
2023/05/07 11:00:47;;;;;;;15.75;12.45;;;;;;;20.11;68.49;101628.75;6158577;23;20009;-74
2023/05/07 11:03:14;;;;;;;14.00;12.55;;;;;;;20.05;68.87;101629.84;6157313;23;20005;-76
2023/05/07 11:05:41;;;;;;;13.40;12.05;;;;;;;20.18;67.88;101618.75;6133336;23;20036;-75
2023/05/07 11:08:06;;;;;;;13.48;11.55;;;;;;;20.36;68.83;101614.50;6157698;23;20009;-72